createdAt,value
2019-03-12T00:00:44.251Z,29.30
2019-03-12T00:01:44.245Z,33.60
2019-03-12T00:02:44.240Z,30.00
2019-03-12T00:03:44.243Z,33.20
2019-03-12T00:04:44.214Z,33.30
2019-03-12T00:05:44.202Z,33.00
2019-03-12T00:06:44.193Z,27.60
2019-03-12T00:07:44.176Z,35.50
2019-03-12T00:08:44.181Z,32.90
2019-03-12T00:09:44.165Z,33.00
2019-03-12T00:10:44.146Z,31.40
2019-03-12T00:11:44.143Z,23.90
2019-03-12T00:12:44.126Z,28.30
2019-03-12T00:13:44.123Z,36.50
2019-03-12T00:14:44.123Z,29.80
2019-03-12T00:15:44.096Z,34.10
2019-03-12T00:16:44.086Z,32.70
2019-03-12T00:17:44.139Z,24.60
2019-03-12T00:18:44.067Z,26.30
2019-03-12T00:19:44.062Z,29.80
2019-03-12T00:20:44.087Z,30.30
2019-03-12T00:21:44.057Z,28.30
2019-03-12T00:22:44.030Z,23.20
2019-03-12T00:23:44.002Z,29.90
2019-03-12T00:24:44.051Z,27.20
2019-03-12T00:25:43.986Z,28.20
2019-03-12T00:26:43.977Z,31.30
2019-03-12T00:27:43.970Z,29.70
2019-03-12T00:28:43.956Z,31.10
2019-03-12T00:29:43.937Z,31.30
2019-03-12T00:30:43.944Z,23.90
2019-03-12T00:31:43.921Z,28.80
2019-03-12T00:32:43.915Z,24.50
2019-03-12T00:33:43.894Z,26.90
2019-03-12T00:34:43.884Z,30.50
2019-03-12T00:35:43.882Z,32.20
2019-03-12T00:36:43.861Z,27.70
2019-03-12T00:37:43.869Z,30.70
2019-03-12T00:38:43.847Z,31.30
2019-03-12T00:39:43.830Z,25.80
2019-03-12T00:40:43.843Z,29.50
2019-03-12T00:41:43.811Z,30.10
2019-03-12T00:42:43.799Z,27.50
2019-03-12T00:43:43.794Z,25.30
2019-03-12T00:44:43.802Z,25.50
2019-03-12T00:45:43.788Z,26.40
2019-03-12T00:46:43.757Z,30.90
2019-03-12T00:47:43.748Z,29.40
2019-03-12T00:48:43.736Z,28.80
2019-03-12T00:49:43.722Z,28.20
2019-03-12T00:50:43.722Z,27.00
2019-03-12T00:51:43.710Z,32.00
2019-03-12T00:52:43.697Z,29.30
2019-03-12T00:53:43.681Z,27.40
2019-03-12T00:54:43.679Z,34.20
2019-03-12T00:55:43.661Z,36.30
2019-03-12T00:56:43.753Z,22.80
2019-03-12T00:57:43.636Z,30.30
2019-03-12T00:58:43.631Z,32.60
2019-03-12T00:59:43.622Z,27.50
2019-03-12T01:00:43.610Z,31.80
2019-03-12T01:01:43.610Z,31.40
2019-03-12T01:02:43.588Z,33.70
2019-03-12T01:03:43.578Z,34.60
2019-03-12T01:04:43.566Z,33.70
2019-03-12T01:05:43.557Z,34.10
2019-03-12T01:06:43.562Z,32.60
2019-03-12T01:07:43.528Z,31.90
2019-03-12T01:08:43.518Z,32.00
2019-03-12T01:09:43.506Z,31.50
2019-03-12T01:10:43.499Z,26.60
2019-03-12T01:11:43.526Z,31.90
2019-03-12T01:12:43.488Z,31.80
2019-03-12T01:13:43.497Z,34.90
2019-03-12T01:14:43.453Z,29.70
2019-03-12T01:15:43.445Z,27.30
2019-03-12T01:16:43.433Z,30.20
2019-03-12T01:17:43.434Z,28.90
2019-03-12T01:18:43.420Z,26.40
2019-03-12T01:19:43.400Z,27.30
2019-03-12T01:20:43.395Z,30.30
2019-03-12T01:21:43.378Z,29.50
2019-03-12T01:22:43.379Z,24.90
2019-03-12T01:23:43.376Z,34.50
2019-03-12T01:24:43.353Z,32.50
2019-03-12T01:25:43.336Z,27.70
2019-03-12T01:26:43.329Z,29.00
2019-03-12T01:27:43.317Z,31.90
2019-03-12T01:28:43.344Z,34.20
2019-03-12T01:29:43.295Z,32.50
2019-03-12T01:30:43.291Z,29.90
2019-03-12T01:31:43.272Z,30.80
2019-03-12T01:32:43.269Z,26.30
2019-03-12T01:33:43.262Z,30.70
2019-03-12T01:34:43.259Z,33.00
2019-03-12T01:35:43.237Z,18.10
2019-03-12T01:36:43.253Z,33.10
2019-03-12T01:37:43.217Z,35.90
2019-03-12T01:38:43.210Z,32.00
2019-03-12T01:39:43.188Z,31.60
2019-03-12T01:40:43.178Z,31.50
2019-03-12T01:41:43.167Z,29.90
2019-03-12T01:42:43.161Z,34.30
2019-03-12T01:43:43.179Z,28.90
2019-03-12T01:44:43.152Z,28.20
2019-03-12T01:45:43.131Z,31.00
2019-03-12T01:46:43.118Z,30.90
2019-03-12T01:47:43.128Z,29.50
2019-03-12T01:48:43.092Z,29.40
2019-03-12T01:49:43.114Z,28.60
2019-03-12T01:50:43.081Z,26.70
2019-03-12T01:51:43.069Z,22.10
2019-03-12T01:52:43.049Z,36.30
2019-03-12T01:53:43.044Z,26.50
2019-03-12T01:54:43.029Z,32.60
2019-03-12T01:55:43.032Z,25.60
2019-03-12T01:56:43.006Z,28.30
2019-03-12T01:57:43.004Z,32.60
2019-03-12T01:58:42.988Z,32.80
2019-03-12T01:59:43.006Z,27.50
2019-03-12T02:00:43.001Z,32.60
2019-03-12T02:01:42.956Z,33.10
2019-03-12T02:02:42.946Z,32.50
2019-03-12T02:03:42.938Z,29.60
2019-03-12T02:04:42.927Z,31.00
2019-03-12T02:05:42.913Z,29.50
2019-03-12T02:06:42.908Z,37.50
2019-03-12T02:07:42.904Z,35.80
2019-03-12T02:08:42.875Z,34.80
2019-03-12T02:09:42.869Z,28.00
2019-03-12T02:10:42.858Z,30.50
2019-03-12T02:11:42.846Z,26.90
2019-03-12T02:12:42.854Z,33.60
2019-03-12T02:13:42.828Z,31.30
2019-03-12T02:14:42.811Z,37.30
2019-03-12T02:15:42.809Z,34.00
2019-03-12T02:16:42.793Z,28.30
2019-03-12T02:17:42.816Z,34.10
2019-03-12T02:18:42.768Z,31.30
2019-03-12T02:19:42.766Z,31.60
2019-03-12T02:20:43.610Z,30.60
2019-03-12T02:21:42.745Z,36.50
2019-03-12T02:22:42.725Z,34.80
2019-03-12T02:23:42.732Z,36.90
2019-03-12T02:24:52.017Z,33.40
2019-03-12T02:25:43.695Z,35.20
2019-03-12T02:26:42.690Z,33.00
2019-03-12T02:27:42.676Z,38.90
2019-03-12T02:28:42.708Z,35.40
2019-03-12T02:29:42.648Z,32.90
2019-03-12T02:30:42.638Z,35.10
2019-03-12T02:31:42.627Z,36.50
2019-03-12T02:32:44.516Z,35.80
2019-03-12T02:33:42.608Z,35.30
2019-03-12T02:34:42.603Z,38.50
2019-03-12T02:35:42.608Z,39.10
2019-03-12T02:36:42.573Z,29.20
2019-03-12T02:37:42.561Z,40.50
2019-03-12T02:38:42.551Z,38.60
2019-03-12T02:39:42.555Z,37.00
2019-03-12T02:40:42.538Z,31.80
2019-03-12T02:41:42.549Z,34.60
2019-03-12T02:42:42.512Z,30.80
2019-03-12T02:43:42.497Z,37.40
2019-03-12T02:44:42.490Z,36.10
2019-03-12T02:45:42.525Z,37.90
2019-03-12T02:46:42.469Z,36.80
2019-03-12T02:47:42.455Z,35.30
2019-03-12T02:48:42.445Z,32.90
2019-03-12T02:49:42.429Z,37.50
2019-03-12T02:50:42.422Z,37.80
2019-03-12T02:51:42.421Z,37.00
2019-03-12T02:52:42.401Z,32.30
2019-03-12T02:53:42.388Z,36.60
2019-03-12T02:54:42.373Z,35.20
2019-03-12T02:55:42.368Z,34.60
2019-03-12T02:56:42.387Z,41.80
2019-03-12T02:57:42.345Z,37.70
2019-03-12T02:58:42.341Z,39.60
2019-03-12T02:59:42.319Z,42.50
2019-03-12T03:00:42.310Z,40.30
2019-03-12T03:01:42.334Z,40.50
2019-03-12T03:02:42.305Z,44.70
2019-03-12T03:03:42.275Z,40.00
2019-03-12T03:04:42.264Z,40.00
2019-03-12T03:05:42.253Z,37.60
2019-03-12T03:06:42.245Z,40.50
2019-03-12T03:07:42.276Z,34.80
2019-03-12T03:08:42.227Z,41.00
2019-03-12T03:09:42.223Z,40.80
2019-03-12T03:10:42.196Z,39.00
2019-03-12T03:11:42.205Z,38.50
2019-03-12T03:12:42.182Z,38.50
2019-03-12T03:13:42.166Z,39.50
2019-03-12T03:14:42.157Z,39.50
2019-03-12T03:15:42.141Z,38.80
2019-03-12T03:16:42.135Z,35.80
2019-03-12T03:17:42.124Z,38.70
2019-03-12T03:18:42.121Z,40.90
2019-03-12T03:19:42.101Z,35.90
2019-03-12T03:20:42.087Z,37.80
2019-03-12T03:21:42.124Z,39.40
2019-03-12T03:22:42.078Z,36.60
2019-03-12T03:23:42.055Z,37.00
2019-03-12T03:24:42.046Z,39.90
2019-03-12T03:25:42.040Z,38.30
2019-03-12T03:26:42.027Z,38.40
2019-03-12T03:27:42.033Z,42.10
2019-03-12T03:28:42.000Z,36.30
2019-03-12T03:29:41.996Z,38.90
2019-03-12T03:30:42.030Z,42.10
2019-03-12T03:31:41.973Z,34.80
2019-03-12T03:32:41.965Z,38.00
2019-03-12T03:33:41.947Z,38.60
2019-03-12T03:34:41.936Z,33.70
2019-03-12T03:35:41.925Z,38.80
2019-03-12T03:36:41.955Z,33.20
2019-03-12T03:37:41.913Z,31.30
2019-03-12T03:38:41.891Z,36.70
2019-03-12T03:39:41.881Z,32.40
2019-03-12T03:40:41.867Z,38.50
2019-03-12T03:41:41.864Z,36.00
2019-03-12T03:42:41.856Z,37.10
2019-03-12T03:43:41.845Z,39.80
2019-03-12T03:44:41.889Z,39.80
2019-03-12T03:45:41.812Z,40.90
2019-03-12T03:46:41.802Z,40.50
2019-03-12T03:47:41.806Z,43.70
2019-03-12T03:48:41.782Z,42.00
2019-03-12T03:49:41.765Z,38.40
2019-03-12T03:50:41.763Z,39.10
2019-03-12T03:51:41.743Z,38.60
2019-03-12T03:52:41.738Z,37.60
2019-03-12T03:53:41.731Z,36.00
2019-03-12T03:54:41.725Z,38.80
2019-03-12T03:55:41.716Z,43.50
2019-03-12T03:56:41.705Z,39.60
2019-03-12T03:57:41.680Z,38.50
2019-03-12T03:58:41.674Z,41.40
2019-03-12T03:59:41.654Z,40.30
2019-03-12T04:00:41.675Z,37.60
2019-03-12T04:01:41.632Z,39.10
2019-03-12T04:02:41.632Z,40.50
2019-03-12T04:03:41.667Z,38.10
2019-03-12T04:04:41.603Z,38.10
2019-03-12T04:05:41.596Z,39.60
2019-03-12T04:06:41.609Z,40.20
2019-03-12T04:07:41.573Z,31.20
2019-03-12T04:08:41.556Z,41.30
2019-03-12T04:09:41.561Z,45.80
2019-03-12T04:10:41.567Z,40.00
2019-03-12T04:11:41.530Z,41.90
2019-03-12T04:12:41.511Z,41.70
2019-03-12T04:13:41.504Z,39.10
2019-03-12T04:14:41.499Z,38.70
2019-03-12T04:15:41.487Z,37.60
2019-03-12T04:16:41.474Z,39.80
2019-03-12T04:17:41.456Z,43.20
2019-03-12T04:18:41.451Z,40.70
2019-03-12T04:19:41.451Z,38.60
2019-03-12T04:20:41.445Z,41.80
2019-03-12T04:21:41.464Z,41.40
2019-03-12T04:22:41.524Z,42.10
2019-03-12T04:23:41.413Z,42.50
2019-03-12T04:24:41.380Z,39.30
2019-03-12T04:25:41.373Z,38.50
2019-03-12T04:26:41.397Z,41.20
2019-03-12T04:27:41.369Z,45.00
2019-03-12T04:28:41.336Z,42.10
2019-03-12T04:29:41.333Z,40.20
2019-03-12T04:30:41.321Z,40.20
2019-03-12T04:31:41.308Z,42.50
2019-03-12T04:32:41.300Z,39.90
2019-03-12T04:33:41.280Z,38.30
2019-03-12T04:34:41.275Z,34.00
2019-03-12T04:35:41.259Z,37.40
2019-03-12T04:36:41.264Z,33.90
2019-03-12T04:37:41.240Z,39.40
2019-03-12T04:38:41.231Z,39.20
2019-03-12T04:39:41.225Z,38.40
2019-03-12T04:40:41.213Z,39.20
2019-03-12T04:41:41.195Z,42.90
2019-03-12T04:42:41.189Z,41.60
2019-03-12T04:43:41.174Z,42.90
2019-03-12T04:44:41.163Z,47.00
2019-03-12T04:45:41.153Z,42.00
2019-03-12T04:46:41.155Z,43.50
2019-03-12T04:47:41.124Z,40.10
2019-03-12T04:48:41.118Z,41.40
2019-03-12T04:49:41.103Z,39.80
2019-03-12T04:50:41.107Z,40.90
2019-03-12T04:51:41.083Z,37.70
2019-03-12T04:52:41.077Z,36.90
2019-03-12T04:53:41.058Z,37.60
2019-03-12T04:54:41.047Z,38.50
2019-03-12T04:55:41.046Z,36.00
2019-03-12T04:56:41.040Z,34.10
2019-03-12T04:57:41.015Z,39.60
2019-03-12T04:58:41.013Z,37.60
2019-03-12T04:59:41.005Z,38.80
2019-03-12T05:00:40.987Z,35.80
2019-03-12T05:01:40.981Z,36.50
2019-03-12T05:02:40.963Z,37.40
2019-03-12T05:03:40.951Z,38.00
2019-03-12T05:04:40.939Z,40.20
2019-03-12T05:05:40.932Z,37.40
2019-03-12T05:06:40.946Z,34.00
2019-03-12T05:07:40.906Z,32.60
2019-03-12T05:08:40.899Z,33.90
2019-03-12T05:09:40.883Z,31.90
2019-03-12T05:10:40.872Z,31.60
2019-03-12T05:11:40.870Z,34.90
2019-03-12T05:12:40.876Z,32.10
2019-03-12T05:13:40.851Z,29.50
2019-03-12T05:14:40.828Z,30.80
2019-03-12T05:15:40.828Z,25.40
2019-03-12T05:16:40.814Z,34.40
2019-03-12T05:17:40.818Z,28.90
2019-03-12T05:18:40.786Z,29.90
2019-03-12T05:19:41.280Z,28.20
2019-03-12T05:20:40.771Z,29.30
2019-03-12T05:21:40.752Z,30.30
2019-03-12T05:22:40.768Z,32.50
2019-03-12T05:23:40.737Z,28.70
2019-03-12T05:24:40.723Z,29.40
2019-03-12T05:25:40.707Z,30.20
2019-03-12T05:26:40.705Z,33.50
2019-03-12T05:27:40.712Z,29.40
2019-03-12T05:28:40.679Z,30.70
2019-03-12T05:29:40.670Z,30.40
2019-03-12T05:30:40.651Z,33.00
2019-03-12T05:31:40.651Z,31.30
2019-03-12T05:32:40.638Z,29.80
2019-03-12T05:33:40.644Z,30.30
2019-03-12T05:34:40.615Z,25.80
2019-03-12T05:35:40.697Z,30.50
2019-03-12T05:36:40.586Z,28.00
2019-03-12T05:37:40.575Z,27.50
2019-03-12T05:38:40.562Z,26.20
2019-03-12T05:39:40.553Z,27.00
2019-03-12T05:40:40.541Z,27.00
2019-03-12T05:41:40.546Z,28.10
2019-03-12T05:42:40.620Z,23.60
2019-03-12T05:43:40.508Z,25.80
2019-03-12T05:44:40.508Z,26.10
2019-03-12T05:45:40.549Z,25.70
2019-03-12T05:46:40.482Z,25.50
2019-03-12T05:47:40.596Z,23.80
2019-03-12T05:48:40.460Z,27.90
2019-03-12T05:49:40.448Z,24.20
2019-03-12T05:50:40.432Z,18.00
2019-03-12T05:51:40.438Z,22.90
2019-03-12T05:52:40.412Z,24.70
2019-03-12T05:53:40.405Z,25.10
2019-03-12T05:54:40.389Z,23.90
2019-03-12T05:55:40.379Z,25.80
2019-03-12T05:56:40.383Z,26.80
2019-03-12T05:57:40.355Z,25.00
2019-03-12T05:58:40.356Z,23.90
2019-03-12T05:59:40.340Z,27.20
2019-03-12T06:00:40.327Z,25.90
2019-03-12T06:01:40.355Z,28.70
2019-03-12T06:02:40.302Z,26.40
2019-03-12T06:03:40.288Z,30.60
2019-03-12T06:04:40.278Z,26.20
2019-03-12T06:05:40.272Z,30.20
2019-03-12T06:06:40.262Z,27.00
2019-03-12T06:07:40.282Z,29.00
2019-03-12T06:08:40.243Z,25.80
2019-03-12T06:09:40.221Z,25.50
2019-03-12T06:10:40.211Z,30.30
2019-03-12T06:11:40.219Z,26.90
2019-03-12T06:12:40.189Z,22.60
2019-03-12T06:13:40.193Z,20.40
2019-03-12T06:14:40.177Z,23.60
2019-03-12T06:15:40.157Z,19.80
2019-03-12T06:16:40.154Z,20.10
2019-03-12T06:17:40.134Z,20.00
2019-03-12T06:18:40.141Z,22.40
2019-03-12T06:19:43.285Z,21.50
2019-03-12T06:20:40.101Z,19.70
2019-03-12T06:21:40.114Z,20.80
2019-03-12T06:22:40.129Z,21.70
2019-03-12T06:23:40.078Z,24.40
2019-03-12T06:24:40.061Z,22.40
2019-03-12T06:25:40.053Z,19.80
2019-03-12T06:26:40.037Z,22.50
2019-03-12T06:27:40.030Z,24.20
2019-03-12T06:28:40.023Z,23.30
2019-03-12T06:29:40.008Z,21.70
2019-03-12T06:30:39.990Z,22.80
2019-03-12T06:31:39.993Z,19.90
2019-03-12T06:32:39.977Z,20.00
2019-03-12T06:33:39.968Z,20.10
2019-03-12T06:34:39.988Z,20.30
2019-03-12T06:35:39.939Z,19.70
2019-03-12T06:36:39.931Z,19.50
2019-03-12T06:37:39.921Z,17.50
2019-03-12T06:38:39.922Z,19.90
2019-03-12T06:39:42.990Z,19.70
2019-03-12T06:40:39.888Z,19.60
2019-03-12T06:41:39.930Z,19.70
2019-03-12T06:42:39.866Z,22.60
2019-03-12T06:43:39.896Z,21.20
2019-03-12T06:44:39.905Z,18.30
2019-03-12T06:45:39.836Z,19.00
2019-03-12T06:46:39.821Z,18.40
2019-03-12T06:47:39.811Z,19.00
2019-03-12T06:48:39.798Z,18.90
2019-03-12T06:49:39.793Z,24.10
2019-03-12T06:50:39.789Z,19.60
2019-03-12T06:51:39.772Z,21.80
2019-03-12T06:52:39.759Z,24.30
2019-03-12T06:53:39.758Z,18.90
2019-03-12T06:54:39.757Z,22.50
2019-03-12T06:55:41.169Z,19.40
2019-03-12T06:56:39.709Z,18.30
2019-03-12T06:57:39.713Z,21.10
2019-03-12T06:58:39.694Z,23.10
2019-03-12T06:59:39.691Z,18.20
2019-03-12T07:00:39.691Z,18.20
2019-03-12T07:01:39.733Z,18.10
2019-03-12T07:02:39.645Z,18.70
2019-03-12T07:03:39.640Z,16.70
2019-03-12T07:04:39.631Z,18.20
2019-03-12T07:05:39.615Z,17.90
2019-03-12T07:06:39.616Z,21.60
2019-03-12T07:07:41.784Z,15.50
2019-03-12T07:08:40.584Z,17.30
2019-03-12T07:09:39.569Z,19.20
2019-03-12T07:10:39.645Z,18.80
2019-03-12T07:11:39.557Z,20.70
2019-03-12T07:12:39.536Z,16.40
2019-03-12T07:13:39.525Z,20.50
2019-03-12T07:14:39.528Z,19.10
2019-03-12T07:15:39.509Z,20.80
2019-03-12T07:16:39.498Z,19.50
2019-03-12T07:17:39.481Z,21.40
2019-03-12T07:18:39.483Z,17.80
2019-03-12T07:19:39.465Z,20.80
2019-03-12T07:20:39.475Z,21.00
2019-03-12T07:21:39.444Z,23.20
2019-03-12T07:22:39.452Z,21.70
2019-03-12T07:23:39.432Z,17.80
2019-03-12T07:24:39.410Z,25.30
2019-03-12T07:25:39.393Z,22.70
2019-03-12T07:26:39.388Z,20.20
2019-03-12T07:27:39.380Z,24.30
2019-03-12T07:28:49.745Z,19.70
2019-03-12T07:29:40.349Z,27.00
2019-03-12T07:30:39.342Z,21.50
2019-03-12T07:31:39.336Z,25.90
2019-03-12T07:32:39.319Z,22.60
2019-03-12T07:33:39.313Z,26.60
2019-03-12T07:34:39.313Z,21.10
2019-03-12T07:35:39.286Z,27.60
2019-03-12T07:36:39.274Z,23.30
2019-03-12T07:37:39.274Z,24.30
2019-03-12T07:38:39.259Z,23.60
2019-03-12T07:39:39.265Z,24.70
2019-03-12T07:40:39.237Z,22.60
2019-03-12T07:41:39.227Z,24.80
2019-03-12T07:42:39.220Z,25.90
2019-03-12T07:43:39.205Z,30.20
2019-03-12T07:44:39.245Z,21.00
2019-03-12T07:45:42.075Z,30.80
2019-03-12T07:46:39.166Z,29.10
2019-03-12T07:47:41.848Z,30.10
2019-03-12T07:48:39.146Z,28.00
2019-03-12T07:49:39.142Z,26.30
2019-03-12T07:50:39.133Z,17.90
2019-03-12T07:51:39.126Z,25.80
2019-03-12T07:52:39.107Z,26.10
2019-03-12T07:53:39.104Z,22.50
2019-03-12T07:54:39.084Z,21.70
2019-03-12T07:55:39.099Z,27.00
2019-03-12T07:56:39.077Z,24.50
2019-03-12T07:57:39.059Z,24.10
2019-03-12T07:58:39.035Z,23.80
2019-03-12T07:59:39.030Z,21.20
2019-03-12T08:00:39.019Z,20.10
2019-03-12T08:01:39.018Z,21.10
2019-03-12T08:02:39.002Z,24.80
2019-03-12T08:03:38.980Z,21.40
2019-03-12T08:04:38.975Z,24.40
2019-03-12T08:05:38.960Z,24.80
2019-03-12T08:06:38.983Z,23.40
2019-03-12T08:07:38.957Z,22.50
2019-03-12T08:08:38.936Z,23.70
2019-03-12T08:09:38.920Z,25.30
2019-03-12T08:10:38.913Z,20.50
2019-03-12T08:11:38.903Z,25.20
2019-03-12T08:12:38.884Z,24.30
2019-03-12T08:13:38.877Z,20.00
2019-03-12T08:14:38.866Z,22.00
2019-03-12T08:15:38.851Z,22.50
2019-03-12T08:16:38.913Z,19.50
2019-03-12T08:17:38.832Z,23.90
2019-03-12T08:18:38.820Z,19.70
2019-03-12T08:19:38.807Z,22.20
2019-03-12T08:20:38.799Z,22.50
2019-03-12T08:21:38.787Z,21.70
2019-03-12T08:22:38.785Z,23.70
2019-03-12T08:23:38.768Z,23.50
2019-03-12T08:24:38.747Z,21.10
2019-03-12T08:25:38.822Z,22.40
2019-03-12T08:26:38.731Z,21.80
2019-03-12T08:27:38.733Z,21.60
2019-03-12T08:28:38.703Z,21.60
2019-03-12T08:29:38.693Z,23.40
2019-03-12T08:30:38.685Z,24.90
2019-03-12T08:31:38.676Z,25.20
2019-03-12T08:32:38.702Z,23.80
2019-03-12T08:33:49.914Z,25.60
2019-03-12T08:34:39.640Z,20.40
2019-03-12T08:35:38.630Z,22.00
2019-03-12T08:36:38.615Z,21.50
2019-03-12T08:37:38.612Z,20.70
2019-03-12T08:38:38.604Z,20.90
2019-03-12T08:39:38.583Z,19.70
2019-03-12T08:40:51.678Z,20.10
2019-03-12T08:41:39.563Z,19.60
2019-03-12T08:42:38.554Z,20.20
2019-03-12T08:43:38.552Z,19.70
2019-03-12T08:44:41.289Z,18.50
2019-03-12T08:45:38.520Z,19.40
2019-03-12T08:46:38.513Z,18.30
2019-03-12T08:47:38.501Z,20.10
2019-03-12T08:48:38.503Z,13.20
2019-03-12T08:49:38.477Z,19.00
2019-03-12T08:50:38.466Z,18.30
2019-03-12T08:51:38.469Z,16.90
2019-03-12T08:52:38.445Z,16.70
2019-03-12T08:53:38.428Z,16.50
2019-03-12T08:54:38.421Z,16.70
2019-03-12T08:55:38.411Z,16.90
2019-03-12T08:56:38.406Z,16.80
2019-03-12T08:57:38.385Z,15.70
2019-03-12T08:58:38.377Z,20.70
2019-03-12T08:59:38.364Z,20.10
2019-03-12T09:00:38.353Z,19.00
2019-03-12T09:01:38.353Z,18.70
2019-03-12T09:02:38.338Z,19.40
2019-03-12T09:03:38.357Z,22.20
2019-03-12T09:04:38.313Z,21.60
2019-03-12T09:05:38.304Z,16.30
2019-03-12T09:06:38.291Z,15.60
2019-03-12T09:07:38.279Z,13.70
2019-03-12T09:08:38.281Z,17.30
2019-03-12T09:09:38.288Z,17.20
2019-03-12T09:10:38.241Z,14.50
2019-03-12T09:11:38.231Z,18.90
2019-03-12T09:12:38.220Z,14.60
2019-03-12T09:13:38.220Z,12.30
2019-03-12T09:14:38.299Z,15.60
2019-03-12T09:15:38.195Z,15.40
2019-03-12T09:16:38.176Z,13.30
2019-03-12T09:17:38.171Z,14.90
2019-03-12T09:18:38.161Z,14.00
2019-03-12T09:19:38.169Z,14.40
2019-03-12T09:20:38.240Z,13.80
2019-03-12T09:21:38.138Z,16.00
2019-03-12T09:22:38.118Z,17.00
2019-03-12T09:23:38.108Z,15.30
2019-03-12T09:24:38.094Z,20.60
2019-03-12T09:25:38.092Z,16.40
2019-03-12T09:26:38.074Z,18.70
2019-03-12T09:27:38.079Z,23.40
2019-03-12T09:28:38.047Z,21.20
2019-03-12T09:29:38.036Z,21.50
2019-03-12T09:30:39.714Z,22.10
2019-03-12T09:31:38.034Z,21.60
2019-03-12T09:32:38.010Z,17.00
2019-03-12T09:33:38.007Z,16.80
2019-03-12T09:34:37.987Z,21.80
2019-03-12T09:35:37.978Z,16.70
2019-03-12T09:36:38.007Z,19.10
2019-03-12T09:37:37.951Z,17.80
2019-03-12T09:38:37.939Z,19.40
2019-03-12T09:39:37.930Z,17.50
2019-03-12T09:40:37.918Z,18.60
2019-03-12T09:41:37.911Z,19.70
2019-03-12T09:42:37.906Z,14.10
2019-03-12T09:43:37.885Z,13.90
2019-03-12T09:44:37.880Z,16.60
2019-03-12T09:45:37.864Z,14.90
2019-03-12T09:46:37.858Z,15.20
2019-03-12T09:47:37.853Z,11.50
2019-03-12T09:48:37.841Z,14.70
2019-03-12T09:49:37.823Z,11.10
2019-03-12T09:50:37.815Z,13.10
2019-03-12T09:51:37.800Z,9.90
2019-03-12T09:52:37.796Z,12.50
2019-03-12T09:53:37.817Z,12.20
2019-03-12T09:54:37.781Z,8.40
2019-03-12T09:55:37.756Z,9.00
2019-03-12T09:56:37.745Z,7.80
2019-03-12T09:57:37.729Z,10.30
2019-03-12T09:58:37.718Z,10.20
2019-03-12T09:59:37.721Z,10.20
2019-03-12T10:00:37.699Z,9.30
2019-03-12T10:01:37.691Z,9.40
2019-03-12T10:02:37.679Z,9.00
2019-03-12T10:03:37.663Z,11.10
2019-03-12T10:04:37.731Z,11.10
2019-03-12T10:05:37.645Z,8.10
2019-03-12T10:06:37.629Z,10.50
2019-03-12T10:07:40.033Z,10.00
2019-03-12T10:08:37.618Z,11.70
2019-03-12T10:09:37.608Z,9.60
2019-03-12T10:10:37.585Z,9.70
2019-03-12T10:11:37.573Z,9.10
2019-03-12T10:12:37.565Z,9.70
2019-03-12T10:13:37.558Z,9.10
2019-03-12T10:14:37.557Z,10.70
2019-03-12T10:15:37.539Z,8.10
2019-03-12T10:16:37.526Z,8.50
2019-03-12T10:17:37.509Z,9.20
2019-03-12T10:18:37.510Z,7.50
2019-03-12T10:19:37.513Z,7.60
2019-03-12T10:20:37.481Z,9.60
2019-03-12T10:21:37.468Z,11.70
2019-03-12T10:22:37.453Z,8.50
2019-03-12T10:23:37.449Z,9.00
2019-03-12T10:24:37.431Z,9.40
2019-03-12T10:25:37.434Z,9.20
2019-03-12T10:26:37.411Z,8.40
2019-03-12T10:27:37.410Z,8.90
2019-03-12T10:28:37.388Z,10.00
2019-03-12T10:29:37.391Z,8.20
2019-03-12T10:30:37.744Z,6.90
2019-03-12T10:31:37.364Z,8.90
2019-03-12T10:32:37.350Z,9.40
2019-03-12T10:33:37.333Z,6.80
2019-03-12T10:34:37.326Z,7.40
2019-03-12T10:35:37.317Z,8.70
2019-03-12T10:36:37.314Z,7.20
2019-03-12T10:37:37.296Z,6.50
2019-03-12T10:38:37.369Z,12.20
2019-03-12T10:39:37.279Z,10.00
2019-03-12T10:40:37.257Z,9.20
2019-03-12T10:41:37.282Z,9.50
2019-03-12T10:42:37.238Z,7.30
2019-03-12T10:43:37.227Z,11.20
2019-03-12T10:44:37.216Z,6.10
2019-03-12T10:45:37.198Z,5.10
2019-03-12T10:46:37.189Z,10.70
2019-03-12T10:47:37.187Z,7.50
2019-03-12T10:48:37.166Z,7.00
2019-03-12T10:49:37.923Z,7.70
2019-03-12T10:50:37.145Z,7.20
2019-03-12T10:51:37.134Z,8.60
2019-03-12T10:52:37.133Z,7.60
2019-03-12T10:53:37.123Z,10.80
2019-03-12T10:54:37.130Z,5.00
2019-03-12T10:55:37.088Z,10.80
2019-03-12T10:56:37.076Z,6.80
2019-03-12T10:57:37.130Z,7.50
2019-03-12T10:58:37.092Z,6.80
2019-03-12T10:59:37.044Z,9.40
2019-03-12T11:00:37.041Z,10.90
2019-03-12T11:01:37.023Z,7.00
2019-03-12T11:02:37.025Z,9.90
2019-03-12T11:03:37.002Z,4.70
2019-03-12T11:04:36.996Z,4.90
2019-03-12T11:05:45.790Z,5.10
2019-03-12T11:06:37.968Z,7.20
2019-03-12T11:07:36.966Z,8.20
2019-03-12T11:08:36.948Z,7.10
2019-03-12T11:09:36.947Z,9.20
2019-03-12T11:10:36.934Z,8.80
2019-03-12T11:11:36.919Z,7.90
2019-03-12T11:12:36.915Z,7.40
2019-03-12T11:13:36.893Z,7.50
2019-03-12T11:14:36.887Z,8.70
2019-03-12T11:15:36.870Z,8.20
2019-03-12T11:16:36.861Z,7.50
2019-03-12T11:17:48.706Z,7.30
2019-03-12T11:18:37.845Z,6.80
2019-03-12T11:19:36.831Z,3.10
2019-03-12T11:20:36.828Z,4.70
2019-03-12T11:21:36.807Z,6.80
2019-03-12T11:22:36.796Z,4.30
2019-03-12T11:23:36.796Z,4.80
2019-03-12T11:24:36.789Z,5.00
2019-03-12T11:25:36.764Z,6.20
2019-03-12T11:26:36.754Z,5.10
2019-03-12T11:27:36.737Z,6.40
2019-03-12T11:28:36.755Z,2.70
2019-03-12T11:29:36.717Z,7.50
2019-03-12T11:30:36.704Z,6.20
2019-03-12T11:31:36.703Z,7.20
2019-03-12T11:32:36.688Z,6.20
2019-03-12T11:33:36.677Z,5.20
2019-03-12T11:34:38.569Z,5.80
2019-03-12T11:35:39.266Z,6.40
2019-03-12T11:36:36.644Z,6.30
2019-03-12T11:37:36.656Z,6.80
2019-03-12T11:38:36.622Z,7.00
2019-03-12T11:39:36.684Z,6.10
2019-03-12T11:40:36.600Z,6.20
2019-03-12T11:41:36.606Z,7.80
2019-03-12T11:42:36.581Z,7.10
2019-03-12T11:43:36.570Z,6.70
2019-03-12T11:44:36.554Z,7.10
2019-03-12T11:45:38.027Z,5.70
2019-03-12T11:46:42.905Z,6.20
2019-03-12T11:47:37.526Z,2.50
2019-03-12T11:48:36.546Z,3.30
2019-03-12T11:49:36.499Z,6.00
2019-03-12T11:50:36.502Z,6.60
2019-03-12T11:51:36.494Z,5.20
2019-03-12T11:52:36.473Z,3.10
2019-03-12T11:53:36.472Z,4.70
2019-03-12T11:54:36.449Z,4.90
2019-03-12T11:55:36.465Z,3.90
2019-03-12T11:56:36.445Z,3.80
2019-03-12T11:57:36.418Z,4.00
2019-03-12T11:58:36.412Z,4.00
2019-03-12T11:59:36.393Z,4.80
2019-03-12T12:00:36.381Z,5.50
2019-03-12T12:01:36.386Z,5.70
2019-03-12T12:02:36.357Z,5.50
2019-03-12T12:03:36.384Z,4.90
2019-03-12T12:04:36.342Z,5.10
2019-03-12T12:05:36.351Z,5.90
2019-03-12T12:06:36.345Z,4.20
2019-03-12T12:07:36.353Z,5.50
2019-03-12T12:08:36.299Z,5.30
2019-03-12T12:09:36.283Z,7.30
2019-03-12T12:10:36.285Z,7.30
2019-03-12T12:11:36.270Z,4.60
2019-03-12T12:12:36.248Z,6.50
2019-03-12T12:13:36.236Z,5.30
2019-03-12T12:14:36.233Z,4.80
2019-03-12T12:15:36.230Z,5.60
2019-03-12T12:16:36.227Z,4.70
2019-03-12T12:17:36.193Z,5.50
2019-03-12T12:18:36.183Z,4.40
2019-03-12T12:19:36.174Z,7.10
2019-03-12T12:20:36.171Z,5.70
2019-03-12T12:21:36.162Z,4.60
2019-03-12T12:22:36.175Z,8.90
2019-03-12T12:23:36.132Z,5.60
2019-03-12T12:24:36.116Z,5.10
2019-03-12T12:25:36.111Z,7.00
2019-03-12T12:26:36.098Z,4.00
2019-03-12T12:27:36.087Z,5.50
2019-03-12T12:28:36.115Z,6.50
2019-03-12T12:29:36.061Z,6.20
2019-03-12T12:30:36.051Z,6.10
2019-03-12T12:31:36.042Z,6.40
2019-03-12T12:32:36.029Z,4.50
2019-03-12T12:33:36.022Z,6.20
2019-03-12T12:34:36.021Z,6.90
2019-03-12T12:35:36.001Z,5.00
2019-03-12T12:36:35.994Z,8.50
2019-03-12T12:37:35.981Z,5.70
2019-03-12T12:38:35.970Z,5.20
2019-03-12T12:39:35.960Z,5.90
2019-03-12T12:40:35.951Z,6.20
2019-03-12T12:41:35.932Z,4.60
2019-03-12T12:42:36.279Z,6.90
2019-03-12T12:43:35.921Z,6.10
2019-03-12T12:44:35.925Z,5.00
2019-03-12T12:45:35.901Z,6.10
2019-03-12T12:46:35.888Z,5.90
2019-03-12T12:47:35.863Z,6.60
2019-03-12T12:48:35.855Z,5.60
2019-03-12T12:49:35.856Z,5.90
2019-03-12T12:50:35.849Z,5.70
2019-03-12T12:51:35.823Z,7.90
2019-03-12T12:52:35.825Z,6.20
2019-03-12T12:53:35.825Z,6.50
2019-03-12T12:54:35.914Z,6.40
2019-03-12T12:55:35.784Z,5.40
2019-03-12T12:56:35.773Z,5.40
2019-03-12T12:57:35.761Z,6.20
2019-03-12T12:58:35.744Z,9.00